sensor_id;sensor_type;location;lat;lon;timestamp;P1;durP1;ratioP1;P2;durP2;ratioP2
26696;SDS011;14312;52.614;13.496;2023-04-30T00:00:16;1.77;;;1.30;;
26696;SDS011;14312;52.614;13.496;2023-04-30T00:03:02;2.65;;;1.50;;
26696;SDS011;14312;52.614;13.496;2023-04-30T00:05:49;2.70;;;1.42;;
26696;SDS011;14312;52.614;13.496;2023-04-30T00:08:36;4.20;;;1.35;;
26696;SDS011;14312;52.614;13.496;2023-04-30T00:11:22;1.90;;;1.20;;
26696;SDS011;14312;52.614;13.496;2023-04-30T00:14:10;1.75;;;1.17;;
26696;SDS011;14312;52.614;13.496;2023-04-30T00:16:56;2.50;;;1.50;;
26696;SDS011;14312;52.614;13.496;2023-04-30T00:19:42;1.67;;;1.10;;
26696;SDS011;14312;52.614;13.496;2023-04-30T00:22:28;1.77;;;1.10;;
26696;SDS011;14312;52.614;13.496;2023-04-30T00:25:14;2.25;;;1.20;;
26696;SDS011;14312;52.614;13.496;2023-04-30T00:28:01;1.77;;;1.10;;
26696;SDS011;14312;52.614;13.496;2023-04-30T00:30:47;1.60;;;1.02;;
26696;SDS011;14312;52.614;13.496;2023-04-30T00:33:33;2.35;;;1.08;;
26696;SDS011;14312;52.614;13.496;2023-04-30T00:36:19;1.77;;;1.08;;
26696;SDS011;14312;52.614;13.496;2023-04-30T00:39:05;1.35;;;1.00;;
26696;SDS011;14312;52.614;13.496;2023-04-30T00:41:51;2.75;;;1.05;;
26696;SDS011;14312;52.614;13.496;2023-04-30T00:44:37;1.27;;;1.10;;
26696;SDS011;14312;52.614;13.496;2023-04-30T00:47:23;1.67;;;1.10;;
26696;SDS011;14312;52.614;13.496;2023-04-30T00:50:09;2.05;;;1.00;;
26696;SDS011;14312;52.614;13.496;2023-04-30T00:52:57;2.35;;;1.00;;
26696;SDS011;14312;52.614;13.496;2023-04-30T00:55:44;1.30;;;1.20;;
26696;SDS011;14312;52.614;13.496;2023-04-30T00:58:30;2.25;;;1.40;;
26696;SDS011;14312;52.614;13.496;2023-04-30T01:01:16;1.20;;;1.10;;
26696;SDS011;14312;52.614;13.496;2023-04-30T01:04:03;1.15;;;1.00;;
26696;SDS011;14312;52.614;13.496;2023-04-30T01:06:49;1.92;;;0.90;;
26696;SDS011;14312;52.614;13.496;2023-04-30T01:09:36;1.38;;;1.00;;
26696;SDS011;14312;52.614;13.496;2023-04-30T01:15:53;0.95;;;0.93;;
26696;SDS011;14312;52.614;13.496;2023-04-30T01:18:51;2.78;;;1.20;;
26696;SDS011;14312;52.614;13.496;2023-04-30T01:21:49;1.42;;;1.08;;
26696;SDS011;14312;52.614;13.496;2023-04-30T01:24:50;4.45;;;1.73;;
26696;SDS011;14312;52.614;13.496;2023-04-30T01:30:53;0.85;;;0.85;;
26696;SDS011;14312;52.614;13.496;2023-04-30T01:33:39;1.45;;;1.10;;
26696;SDS011;14312;52.614;13.496;2023-04-30T01:39:28;1.73;;;1.25;;
26696;SDS011;14312;52.614;13.496;2023-04-30T01:42:19;1.15;;;0.90;;
26696;SDS011;14312;52.614;13.496;2023-04-30T01:48:03;1.45;;;1.02;;
26696;SDS011;14312;52.614;13.496;2023-04-30T01:51:01;2.38;;;1.20;;
26696;SDS011;14312;52.614;13.496;2023-04-30T01:53:49;2.45;;;1.20;;
26696;SDS011;14312;52.614;13.496;2023-04-30T01:56:40;1.20;;;1.00;;
26696;SDS011;14312;52.614;13.496;2023-04-30T01:59:35;1.85;;;1.00;;
26696;SDS011;14312;52.614;13.496;2023-04-30T02:02:23;2.58;;;1.38;;
26696;SDS011;14312;52.614;13.496;2023-04-30T02:05:09;1.10;;;0.90;;
26696;SDS011;14312;52.614;13.496;2023-04-30T02:07:55;2.42;;;1.08;;
26696;SDS011;14312;52.614;13.496;2023-04-30T02:10:41;2.08;;;1.05;;
26696;SDS011;14312;52.614;13.496;2023-04-30T02:13:27;1.48;;;1.02;;
26696;SDS011;14312;52.614;13.496;2023-04-30T02:16:13;2.40;;;1.23;;
26696;SDS011;14312;52.614;13.496;2023-04-30T02:19:00;1.27;;;1.00;;
26696;SDS011;14312;52.614;13.496;2023-04-30T02:21:46;2.15;;;1.20;;
26696;SDS011;14312;52.614;13.496;2023-04-30T02:24:32;1.80;;;1.15;;
26696;SDS011;14312;52.614;13.496;2023-04-30T02:27:18;1.85;;;1.15;;
26696;SDS011;14312;52.614;13.496;2023-04-30T02:30:05;2.60;;;1.30;;
26696;SDS011;14312;52.614;13.496;2023-04-30T02:32:51;3.63;;;1.35;;
26696;SDS011;14312;52.614;13.496;2023-04-30T02:35:38;1.70;;;1.10;;
26696;SDS011;14312;52.614;13.496;2023-04-30T02:38:25;2.10;;;1.40;;
26696;SDS011;14312;52.614;13.496;2023-04-30T02:41:11;2.72;;;1.20;;
26696;SDS011;14312;52.614;13.496;2023-04-30T02:43:57;2.40;;;1.17;;
26696;SDS011;14312;52.614;13.496;2023-04-30T02:46:43;2.80;;;1.30;;
26696;SDS011;14312;52.614;13.496;2023-04-30T02:49:29;2.83;;;1.20;;
26696;SDS011;14312;52.614;13.496;2023-04-30T02:52:15;1.75;;;1.30;;
26696;SDS011;14312;52.614;13.496;2023-04-30T02:55:01;2.88;;;1.27;;
26696;SDS011;14312;52.614;13.496;2023-04-30T02:57:46;3.20;;;1.42;;
26696;SDS011;14312;52.614;13.496;2023-04-30T03:00:32;1.60;;;1.20;;
26696;SDS011;14312;52.614;13.496;2023-04-30T03:03:19;3.38;;;1.40;;
26696;SDS011;14312;52.614;13.496;2023-04-30T03:06:05;2.33;;;1.42;;
26696;SDS011;14312;52.614;13.496;2023-04-30T03:08:51;2.25;;;1.45;;
26696;SDS011;14312;52.614;13.496;2023-04-30T03:11:36;1.48;;;1.33;;
26696;SDS011;14312;52.614;13.496;2023-04-30T03:14:22;1.42;;;1.02;;
26696;SDS011;14312;52.614;13.496;2023-04-30T03:17:08;2.53;;;1.70;;
26696;SDS011;14312;52.614;13.496;2023-04-30T03:19:55;3.60;;;1.40;;
26696;SDS011;14312;52.614;13.496;2023-04-30T03:22:41;2.17;;;1.35;;
26696;SDS011;14312;52.614;13.496;2023-04-30T03:25:27;2.00;;;1.40;;
26696;SDS011;14312;52.614;13.496;2023-04-30T03:28:13;1.75;;;1.25;;
26696;SDS011;14312;52.614;13.496;2023-04-30T03:30:59;2.13;;;1.25;;
26696;SDS011;14312;52.614;13.496;2023-04-30T03:33:45;4.20;;;1.45;;
26696;SDS011;14312;52.614;13.496;2023-04-30T03:36:31;1.85;;;1.30;;
26696;SDS011;14312;52.614;13.496;2023-04-30T03:39:18;1.00;;;0.90;;
26696;SDS011;14312;52.614;13.496;2023-04-30T03:42:03;1.83;;;1.38;;
26696;SDS011;14312;52.614;13.496;2023-04-30T03:44:49;2.08;;;1.35;;
26696;SDS011;14312;52.614;13.496;2023-04-30T03:47:35;2.08;;;1.30;;
26696;SDS011;14312;52.614;13.496;2023-04-30T03:50:21;1.42;;;1.10;;
26696;SDS011;14312;52.614;13.496;2023-04-30T03:53:07;2.03;;;1.30;;
26696;SDS011;14312;52.614;13.496;2023-04-30T03:55:53;1.40;;;1.30;;
26696;SDS011;14312;52.614;13.496;2023-04-30T03:58:41;1.60;;;1.40;;
26696;SDS011;14312;52.614;13.496;2023-04-30T04:01:28;1.50;;;1.40;;
26696;SDS011;14312;52.614;13.496;2023-04-30T04:04:14;3.22;;;1.55;;
26696;SDS011;14312;52.614;13.496;2023-04-30T04:07:00;3.22;;;1.20;;
26696;SDS011;14312;52.614;13.496;2023-04-30T04:09:47;1.42;;;1.17;;
26696;SDS011;14312;52.614;13.496;2023-04-30T04:12:34;3.05;;;1.42;;
26696;SDS011;14312;52.614;13.496;2023-04-30T04:15:20;3.65;;;1.42;;
26696;SDS011;14312;52.614;13.496;2023-04-30T04:18:06;1.77;;;1.50;;
26696;SDS011;14312;52.614;13.496;2023-04-30T04:20:53;3.17;;;1.40;;
26696;SDS011;14312;52.614;13.496;2023-04-30T04:23:40;3.00;;;1.23;;
26696;SDS011;14312;52.614;13.496;2023-04-30T04:26:26;2.33;;;1.20;;
26696;SDS011;14312;52.614;13.496;2023-04-30T04:29:14;1.88;;;1.40;;
26696;SDS011;14312;52.614;13.496;2023-04-30T04:32:00;1.60;;;1.40;;
26696;SDS011;14312;52.614;13.496;2023-04-30T04:34:47;3.95;;;1.80;;
26696;SDS011;14312;52.614;13.496;2023-04-30T04:37:34;2.60;;;1.48;;
26696;SDS011;14312;52.614;13.496;2023-04-30T04:40:20;2.30;;;1.50;;
26696;SDS011;14312;52.614;13.496;2023-04-30T04:43:06;3.83;;;1.58;;
26696;SDS011;14312;52.614;13.496;2023-04-30T04:45:52;3.15;;;1.30;;
26696;SDS011;14312;52.614;13.496;2023-04-30T04:48:38;1.80;;;1.40;;
26696;SDS011;14312;52.614;13.496;2023-04-30T04:51:24;3.47;;;1.60;;
26696;SDS011;14312;52.614;13.496;2023-04-30T04:54:10;1.90;;;1.42;;
26696;SDS011;14312;52.614;13.496;2023-04-30T04:56:56;2.53;;;1.40;;
26696;SDS011;14312;52.614;13.496;2023-04-30T04:59:42;3.15;;;1.70;;
26696;SDS011;14312;52.614;13.496;2023-04-30T05:02:28;2.42;;;1.58;;
26696;SDS011;14312;52.614;13.496;2023-04-30T05:05:14;4.53;;;1.70;;
26696;SDS011;14312;52.614;13.496;2023-04-30T05:08:00;2.58;;;1.70;;
26696;SDS011;14312;52.614;13.496;2023-04-30T05:10:47;3.25;;;1.58;;
26696;SDS011;14312;52.614;13.496;2023-04-30T05:13:32;2.10;;;1.42;;
26696;SDS011;14312;52.614;13.496;2023-04-30T05:16:18;2.20;;;1.60;;
26696;SDS011;14312;52.614;13.496;2023-04-30T05:19:04;2.40;;;1.58;;
26696;SDS011;14312;52.614;13.496;2023-04-30T05:21:51;3.17;;;1.92;;
26696;SDS011;14312;52.614;13.496;2023-04-30T05:24:37;3.88;;;1.90;;
26696;SDS011;14312;52.614;13.496;2023-04-30T05:27:23;2.75;;;1.60;;
26696;SDS011;14312;52.614;13.496;2023-04-30T05:30:10;1.77;;;1.40;;
26696;SDS011;14312;52.614;13.496;2023-04-30T05:32:56;3.58;;;1.92;;
26696;SDS011;14312;52.614;13.496;2023-04-30T05:35:42;2.88;;;1.70;;
26696;SDS011;14312;52.614;13.496;2023-04-30T05:38:28;2.47;;;1.52;;
26696;SDS011;14312;52.614;13.496;2023-04-30T05:41:15;2.75;;;1.65;;
26696;SDS011;14312;52.614;13.496;2023-04-30T05:44:01;2.47;;;1.70;;
26696;SDS011;14312;52.614;13.496;2023-04-30T05:46:49;1.65;;;1.55;;
26696;SDS011;14312;52.614;13.496;2023-04-30T05:49:35;3.97;;;1.77;;
26696;SDS011;14312;52.614;13.496;2023-04-30T05:52:23;5.18;;;1.90;;
26696;SDS011;14312;52.614;13.496;2023-04-30T05:55:10;2.65;;;1.92;;
26696;SDS011;14312;52.614;13.496;2023-04-30T05:57:57;3.03;;;1.77;;
26696;SDS011;14312;52.614;13.496;2023-04-30T06:00:47;3.10;;;1.90;;
26696;SDS011;14312;52.614;13.496;2023-04-30T06:03:33;2.72;;;2.00;;
26696;SDS011;14312;52.614;13.496;2023-04-30T06:06:20;3.05;;;1.80;;
26696;SDS011;14312;52.614;13.496;2023-04-30T06:09:06;3.15;;;1.75;;
26696;SDS011;14312;52.614;13.496;2023-04-30T06:11:52;3.35;;;1.45;;
26696;SDS011;14312;52.614;13.496;2023-04-30T06:14:40;3.78;;;1.70;;
26696;SDS011;14312;52.614;13.496;2023-04-30T06:17:29;4.95;;;2.20;;
26696;SDS011;14312;52.614;13.496;2023-04-30T06:20:15;4.25;;;1.73;;
26696;SDS011;14312;52.614;13.496;2023-04-30T06:23:02;3.08;;;1.88;;
26696;SDS011;14312;52.614;13.496;2023-04-30T06:25:48;2.47;;;1.73;;
26696;SDS011;14312;52.614;13.496;2023-04-30T06:28:34;3.13;;;1.60;;
26696;SDS011;14312;52.614;13.496;2023-04-30T06:31:20;3.28;;;1.60;;
26696;SDS011;14312;52.614;13.496;2023-04-30T06:34:06;3.35;;;2.05;;
26696;SDS011;14312;52.614;13.496;2023-04-30T06:36:52;2.97;;;2.08;;
26696;SDS011;14312;52.614;13.496;2023-04-30T06:39:38;2.90;;;1.70;;
26696;SDS011;14312;52.614;13.496;2023-04-30T06:42:24;3.25;;;1.80;;
26696;SDS011;14312;52.614;13.496;2023-04-30T06:45:10;2.63;;;1.48;;
26696;SDS011;14312;52.614;13.496;2023-04-30T06:47:59;4.55;;;1.98;;
26696;SDS011;14312;52.614;13.496;2023-04-30T06:50:45;3.42;;;2.10;;
26696;SDS011;14312;52.614;13.496;2023-04-30T06:53:31;2.13;;;1.70;;
26696;SDS011;14312;52.614;13.496;2023-04-30T06:56:17;3.40;;;1.75;;
26696;SDS011;14312;52.614;13.496;2023-04-30T06:59:03;3.15;;;1.65;;
26696;SDS011;14312;52.614;13.496;2023-04-30T07:01:49;2.38;;;1.60;;
26696;SDS011;14312;52.614;13.496;2023-04-30T07:04:35;2.55;;;1.60;;
26696;SDS011;14312;52.614;13.496;2023-04-30T07:07:21;3.78;;;1.80;;
26696;SDS011;14312;52.614;13.496;2023-04-30T07:10:07;3.22;;;1.80;;
26696;SDS011;14312;52.614;13.496;2023-04-30T07:12:54;2.85;;;1.70;;
26696;SDS011;14312;52.614;13.496;2023-04-30T07:15:39;2.63;;;1.60;;
26696;SDS011;14312;52.614;13.496;2023-04-30T07:18:26;2.30;;;1.67;;
26696;SDS011;14312;52.614;13.496;2023-04-30T07:21:13;3.10;;;1.90;;
26696;SDS011;14312;52.614;13.496;2023-04-30T07:24:00;4.75;;;2.00;;
26696;SDS011;14312;52.614;13.496;2023-04-30T07:26:46;5.18;;;1.98;;
26696;SDS011;14312;52.614;13.496;2023-04-30T07:29:35;4.03;;;1.60;;
26696;SDS011;14312;52.614;13.496;2023-04-30T07:32:22;5.78;;;2.08;;
26696;SDS011;14312;52.614;13.496;2023-04-30T07:35:11;2.38;;;1.67;;
26696;SDS011;14312;52.614;13.496;2023-04-30T07:37:58;2.65;;;1.50;;
26696;SDS011;14312;52.614;13.496;2023-04-30T07:40:44;2.90;;;1.70;;
26696;SDS011;14312;52.614;13.496;2023-04-30T07:43:33;2.13;;;1.50;;
26696;SDS011;14312;52.614;13.496;2023-04-30T07:46:18;2.55;;;1.50;;
26696;SDS011;14312;52.614;13.496;2023-04-30T07:49:04;2.50;;;1.60;;
26696;SDS011;14312;52.614;13.496;2023-04-30T07:51:50;2.30;;;1.67;;
26696;SDS011;14312;52.614;13.496;2023-04-30T07:54:36;4.03;;;1.70;;
26696;SDS011;14312;52.614;13.496;2023-04-30T07:57:23;3.78;;;2.30;;
26696;SDS011;14312;52.614;13.496;2023-04-30T08:00:11;2.38;;;1.55;;
26696;SDS011;14312;52.614;13.496;2023-04-30T08:02:59;3.17;;;1.90;;
26696;SDS011;14312;52.614;13.496;2023-04-30T08:05:45;2.72;;;1.77;;
26696;SDS011;14312;52.614;13.496;2023-04-30T08:08:32;3.05;;;1.70;;
26696;SDS011;14312;52.614;13.496;2023-04-30T08:11:18;3.50;;;1.80;;
26696;SDS011;14312;52.614;13.496;2023-04-30T08:14:03;2.38;;;1.50;;
26696;SDS011;14312;52.614;13.496;2023-04-30T08:16:51;2.53;;;1.80;;
26696;SDS011;14312;52.614;13.496;2023-04-30T08:19:37;1.95;;;1.58;;
26696;SDS011;14312;52.614;13.496;2023-04-30T08:22:23;2.63;;;1.55;;
26696;SDS011;14312;52.614;13.496;2023-04-30T08:25:10;3.08;;;1.77;;
26696;SDS011;14312;52.614;13.496;2023-04-30T08:27:59;2.58;;;1.40;;
26696;SDS011;14312;52.614;13.496;2023-04-30T08:30:46;2.42;;;1.48;;
26696;SDS011;14312;52.614;13.496;2023-04-30T08:33:32;2.65;;;1.50;;
26696;SDS011;14312;52.614;13.496;2023-04-30T08:36:18;2.03;;;1.45;;
26696;SDS011;14312;52.614;13.496;2023-04-30T08:39:04;3.50;;;1.70;;
26696;SDS011;14312;52.614;13.496;2023-04-30T08:41:53;2.35;;;1.50;;
26696;SDS011;14312;52.614;13.496;2023-04-30T08:44:40;1.88;;;1.38;;
26696;SDS011;14312;52.614;13.496;2023-04-30T08:47:31;3.65;;;1.60;;
26696;SDS011;14312;52.614;13.496;2023-04-30T08:50:17;3.55;;;1.60;;
26696;SDS011;14312;52.614;13.496;2023-04-30T08:53:06;2.70;;;1.45;;
26696;SDS011;14312;52.614;13.496;2023-04-30T08:55:53;2.80;;;1.80;;
26696;SDS011;14312;52.614;13.496;2023-04-30T08:58:39;3.00;;;1.50;;
26696;SDS011;14312;52.614;13.496;2023-04-30T09:01:25;2.05;;;1.40;;
26696;SDS011;14312;52.614;13.496;2023-04-30T09:04:14;1.60;;;1.30;;
26696;SDS011;14312;52.614;13.496;2023-04-30T09:07:00;3.15;;;1.80;;
26696;SDS011;14312;52.614;13.496;2023-04-30T09:09:47;1.88;;;1.40;;
26696;SDS011;14312;52.614;13.496;2023-04-30T09:12:37;2.53;;;1.60;;
26696;SDS011;14312;52.614;13.496;2023-04-30T09:15:28;1.70;;;1.38;;
26696;SDS011;14312;52.614;13.496;2023-04-30T09:18:16;2.55;;;1.33;;
26696;SDS011;14312;52.614;13.496;2023-04-30T09:21:03;2.72;;;1.60;;
26696;SDS011;14312;52.614;13.496;2023-04-30T09:23:55;4.25;;;1.50;;
26696;SDS011;14312;52.614;13.496;2023-04-30T09:26:42;1.50;;;1.40;;
26696;SDS011;14312;52.614;13.496;2023-04-30T09:29:35;2.80;;;1.48;;
26696;SDS011;14312;52.614;13.496;2023-04-30T09:32:22;2.58;;;1.60;;
26696;SDS011;14312;52.614;13.496;2023-04-30T09:35:19;1.92;;;1.23;;
26696;SDS011;14312;52.614;13.496;2023-04-30T09:38:29;2.28;;;1.40;;
26696;SDS011;14312;52.614;13.496;2023-04-30T09:41:24;2.03;;;1.42;;
26696;SDS011;14312;52.614;13.496;2023-04-30T09:44:28;1.45;;;1.20;;
26696;SDS011;14312;52.614;13.496;2023-04-30T09:47:15;1.90;;;1.48;;
26696;SDS011;14312;52.614;13.496;2023-04-30T09:50:03;1.45;;;1.15;;
26696;SDS011;14312;52.614;13.496;2023-04-30T09:52:53;1.42;;;1.33;;
26696;SDS011;14312;52.614;13.496;2023-04-30T09:55:58;2.33;;;1.45;;
26696;SDS011;14312;52.614;13.496;2023-04-30T09:58:54;1.90;;;1.50;;
26696;SDS011;14312;52.614;13.496;2023-04-30T10:01:41;2.63;;;1.60;;
26696;SDS011;14312;52.614;13.496;2023-04-30T10:04:29;2.53;;;1.70;;
26696;SDS011;14312;52.614;13.496;2023-04-30T10:07:18;1.55;;;1.45;;
26696;SDS011;14312;52.614;13.496;2023-04-30T10:10:09;2.10;;;1.60;;
26696;SDS011;14312;52.614;13.496;2023-04-30T10:12:58;2.17;;;1.42;;
26696;SDS011;14312;52.614;13.496;2023-04-30T10:15:49;2.40;;;1.40;;
26696;SDS011;14312;52.614;13.496;2023-04-30T10:18:38;1.65;;;1.20;;
26696;SDS011;14312;52.614;13.496;2023-04-30T10:21:26;1.73;;;1.33;;
26696;SDS011;14312;52.614;13.496;2023-04-30T10:24:13;2.45;;;1.58;;
26696;SDS011;14312;52.614;13.496;2023-04-30T10:27:00;1.92;;;1.30;;
26696;SDS011;14312;52.614;13.496;2023-04-30T10:29:46;1.48;;;1.38;;
26696;SDS011;14312;52.614;13.496;2023-04-30T10:32:40;1.42;;;1.27;;
26696;SDS011;14312;52.614;13.496;2023-04-30T10:36:00;1.63;;;1.40;;
26696;SDS011;14312;52.614;13.496;2023-04-30T10:38:49;2.92;;;1.60;;
26696;SDS011;14312;52.614;13.496;2023-04-30T10:41:35;1.77;;;1.35;;
26696;SDS011;14312;52.614;13.496;2023-04-30T10:44:22;2.92;;;1.42;;
26696;SDS011;14312;52.614;13.496;2023-04-30T10:47:10;2.20;;;1.70;;
26696;SDS011;14312;52.614;13.496;2023-04-30T10:50:03;1.50;;;1.33;;
26696;SDS011;14312;52.614;13.496;2023-04-30T10:53:00;2.88;;;1.65;;
26696;SDS011;14312;52.614;13.496;2023-04-30T10:55:56;2.13;;;1.50;;
26696;SDS011;14312;52.614;13.496;2023-04-30T10:58:44;1.83;;;1.33;;
26696;SDS011;14312;52.614;13.496;2023-04-30T11:01:30;2.05;;;1.55;;
26696;SDS011;14312;52.614;13.496;2023-04-30T11:07:51;2.90;;;1.40;;
26696;SDS011;14312;52.614;13.496;2023-04-30T11:10:55;3.45;;;1.50;;
26696;SDS011;14312;52.614;13.496;2023-04-30T11:13:43;2.28;;;1.38;;
26696;SDS011;14312;52.614;13.496;2023-04-30T11:16:33;2.28;;;1.50;;
26696;SDS011;14312;52.614;13.496;2023-04-30T11:19:19;3.00;;;1.83;;
26696;SDS011;14312;52.614;13.496;2023-04-30T11:24:54;2.10;;;1.30;;
26696;SDS011;14312;52.614;13.496;2023-04-30T11:27:50;2.30;;;1.67;;
26696;SDS011;14312;52.614;13.496;2023-04-30T11:30:36;2.10;;;1.50;;
26696;SDS011;14312;52.614;13.496;2023-04-30T11:33:27;1.67;;;1.30;;
26696;SDS011;14312;52.614;13.496;2023-04-30T11:36:15;2.17;;;1.30;;
26696;SDS011;14312;52.614;13.496;2023-04-30T11:39:02;2.55;;;1.52;;
26696;SDS011;14312;52.614;13.496;2023-04-30T11:41:50;2.80;;;1.40;;
26696;SDS011;14312;52.614;13.496;2023-04-30T11:44:36;1.67;;;1.38;;
26696;SDS011;14312;52.614;13.496;2023-04-30T11:47:23;2.55;;;1.30;;
26696;SDS011;14312;52.614;13.496;2023-04-30T11:50:09;1.73;;;1.42;;
26696;SDS011;14312;52.614;13.496;2023-04-30T11:52:57;2.67;;;1.50;;
26696;SDS011;14312;52.614;13.496;2023-04-30T11:55:46;2.15;;;1.60;;
26696;SDS011;14312;52.614;13.496;2023-04-30T11:58:35;3.95;;;1.92;;
26696;SDS011;14312;52.614;13.496;2023-04-30T12:01:26;4.70;;;1.92;;
26696;SDS011;14312;52.614;13.496;2023-04-30T12:04:13;2.38;;;1.85;;
26696;SDS011;14312;52.614;13.496;2023-04-30T12:06:59;3.30;;;1.90;;
26696;SDS011;14312;52.614;13.496;2023-04-30T12:09:56;2.50;;;1.23;;
26696;SDS011;14312;52.614;13.496;2023-04-30T12:12:43;3.50;;;1.58;;
26696;SDS011;14312;52.614;13.496;2023-04-30T12:15:29;2.30;;;1.58;;
26696;SDS011;14312;52.614;13.496;2023-04-30T12:18:17;1.73;;;1.23;;
26696;SDS011;14312;52.614;13.496;2023-04-30T12:21:03;1.30;;;1.20;;
26696;SDS011;14312;52.614;13.496;2023-04-30T12:23:49;2.88;;;1.15;;
26696;SDS011;14312;52.614;13.496;2023-04-30T12:26:36;1.70;;;1.20;;
26696;SDS011;14312;52.614;13.496;2023-04-30T12:29:24;1.40;;;1.17;;
26696;SDS011;14312;52.614;13.496;2023-04-30T12:32:10;1.73;;;1.48;;
26696;SDS011;14312;52.614;13.496;2023-04-30T12:35:00;1.20;;;1.10;;
26696;SDS011;14312;52.614;13.496;2023-04-30T12:37:53;1.63;;;1.35;;
26696;SDS011;14312;52.614;13.496;2023-04-30T12:40:46;2.97;;;1.35;;
26696;SDS011;14312;52.614;13.496;2023-04-30T12:43:33;3.35;;;1.45;;
26696;SDS011;14312;52.614;13.496;2023-04-30T12:46:25;1.60;;;1.20;;
26696;SDS011;14312;52.614;13.496;2023-04-30T12:49:20;1.42;;;1.33;;
26696;SDS011;14312;52.614;13.496;2023-04-30T12:52:21;2.30;;;1.17;;
26696;SDS011;14312;52.614;13.496;2023-04-30T12:55:15;1.40;;;1.20;;
26696;SDS011;14312;52.614;13.496;2023-04-30T12:58:06;1.90;;;1.25;;
26696;SDS011;14312;52.614;13.496;2023-04-30T13:00:53;1.88;;;1.40;;
26696;SDS011;14312;52.614;13.496;2023-04-30T13:03:43;1.77;;;1.08;;
26696;SDS011;14312;52.614;13.496;2023-04-30T13:06:28;1.30;;;1.15;;
26696;SDS011;14312;52.614;13.496;2023-04-30T13:09:15;1.30;;;1.20;;
26696;SDS011;14312;52.614;13.496;2023-04-30T13:12:01;1.70;;;1.30;;
26696;SDS011;14312;52.614;13.496;2023-04-30T13:14:47;1.50;;;1.20;;
26696;SDS011;14312;52.614;13.496;2023-04-30T13:17:33;1.55;;;1.23;;
26696;SDS011;14312;52.614;13.496;2023-04-30T13:20:19;2.10;;;1.20;;
26696;SDS011;14312;52.614;13.496;2023-04-30T13:23:05;1.75;;;1.42;;
26696;SDS011;14312;52.614;13.496;2023-04-30T13:25:51;3.75;;;1.40;;
26696;SDS011;14312;52.614;13.496;2023-04-30T13:28:37;1.75;;;1.27;;
26696;SDS011;14312;52.614;13.496;2023-04-30T13:31:23;1.50;;;1.05;;
26696;SDS011;14312;52.614;13.496;2023-04-30T13:34:09;2.05;;;1.30;;
26696;SDS011;14312;52.614;13.496;2023-04-30T13:36:55;2.65;;;1.80;;
26696;SDS011;14312;52.614;13.496;2023-04-30T13:39:41;1.75;;;1.23;;
26696;SDS011;14312;52.614;13.496;2023-04-30T13:42:27;1.88;;;1.20;;
26696;SDS011;14312;52.614;13.496;2023-04-30T13:45:13;1.35;;;1.25;;
26696;SDS011;14312;52.614;13.496;2023-04-30T13:47:59;1.83;;;1.25;;
26696;SDS011;14312;52.614;13.496;2023-04-30T13:50:45;1.63;;;1.10;;
26696;SDS011;14312;52.614;13.496;2023-04-30T13:53:31;1.45;;;1.35;;
26696;SDS011;14312;52.614;13.496;2023-04-30T13:56:17;1.92;;;1.27;;
26696;SDS011;14312;52.614;13.496;2023-04-30T13:59:03;2.47;;;1.80;;
26696;SDS011;14312;52.614;13.496;2023-04-30T14:01:50;2.08;;;1.45;;
26696;SDS011;14312;52.614;13.496;2023-04-30T14:04:36;2.10;;;1.42;;
26696;SDS011;14312;52.614;13.496;2023-04-30T14:07:22;1.42;;;1.30;;
26696;SDS011;14312;52.614;13.496;2023-04-30T14:10:08;2.15;;;1.20;;
26696;SDS011;14312;52.614;13.496;2023-04-30T14:12:54;1.17;;;1.05;;
26696;SDS011;14312;52.614;13.496;2023-04-30T14:15:40;1.60;;;1.10;;
26696;SDS011;14312;52.614;13.496;2023-04-30T14:18:26;3.03;;;1.20;;
26696;SDS011;14312;52.614;13.496;2023-04-30T14:21:12;2.53;;;1.20;;
26696;SDS011;14312;52.614;13.496;2023-04-30T14:23:59;1.50;;;1.30;;
26696;SDS011;14312;52.614;13.496;2023-04-30T14:26:44;1.48;;;1.23;;
26696;SDS011;14312;52.614;13.496;2023-04-30T14:29:30;1.38;;;1.20;;
26696;SDS011;14312;52.614;13.496;2023-04-30T14:32:16;2.50;;;1.30;;
26696;SDS011;14312;52.614;13.496;2023-04-30T14:35:02;1.33;;;1.10;;
26696;SDS011;14312;52.614;13.496;2023-04-30T14:37:49;1.33;;;1.20;;
26696;SDS011;14312;52.614;13.496;2023-04-30T14:40:35;1.95;;;1.45;;
26696;SDS011;14312;52.614;13.496;2023-04-30T14:43:21;1.23;;;1.08;;
26696;SDS011;14312;52.614;13.496;2023-04-30T14:46:08;1.60;;;1.10;;
26696;SDS011;14312;52.614;13.496;2023-04-30T14:48:54;1.65;;;1.20;;
26696;SDS011;14312;52.614;13.496;2023-04-30T14:51:40;1.02;;;0.93;;
26696;SDS011;14312;52.614;13.496;2023-04-30T14:54:25;1.13;;;0.88;;
26696;SDS011;14312;52.614;13.496;2023-04-30T14:57:12;1.92;;;1.40;;
26696;SDS011;14312;52.614;13.496;2023-04-30T14:59:59;2.13;;;1.10;;
26696;SDS011;14312;52.614;13.496;2023-04-30T15:02:45;1.45;;;1.20;;
26696;SDS011;14312;52.614;13.496;2023-04-30T15:05:31;1.70;;;1.20;;
26696;SDS011;14312;52.614;13.496;2023-04-30T15:08:18;1.13;;;1.02;;
26696;SDS011;14312;52.614;13.496;2023-04-30T15:11:03;2.13;;;1.20;;
26696;SDS011;14312;52.614;13.496;2023-04-30T15:13:54;2.10;;;1.10;;
26696;SDS011;14312;52.614;13.496;2023-04-30T15:16:40;1.15;;;1.05;;
26696;SDS011;14312;52.614;13.496;2023-04-30T15:19:26;3.78;;;1.30;;
26696;SDS011;14312;52.614;13.496;2023-04-30T15:22:13;1.17;;;1.08;;
26696;SDS011;14312;52.614;13.496;2023-04-30T15:25:00;1.35;;;1.00;;
26696;SDS011;14312;52.614;13.496;2023-04-30T15:27:47;1.75;;;1.10;;
26696;SDS011;14312;52.614;13.496;2023-04-30T15:30:33;1.58;;;1.15;;
26696;SDS011;14312;52.614;13.496;2023-04-30T15:33:19;5.28;;;1.30;;
26696;SDS011;14312;52.614;13.496;2023-04-30T15:36:05;1.33;;;1.15;;
26696;SDS011;14312;52.614;13.496;2023-04-30T15:38:52;1.58;;;1.00;;
26696;SDS011;14312;52.614;13.496;2023-04-30T15:41:38;1.10;;;1.00;;
26696;SDS011;14312;52.614;13.496;2023-04-30T15:44:24;2.00;;;1.10;;
26696;SDS011;14312;52.614;13.496;2023-04-30T15:47:10;1.25;;;1.05;;
26696;SDS011;14312;52.614;13.496;2023-04-30T15:49:56;1.17;;;1.08;;
26696;SDS011;14312;52.614;13.496;2023-04-30T15:52:42;1.90;;;1.35;;
26696;SDS011;14312;52.614;13.496;2023-04-30T15:55:29;1.80;;;1.10;;
26696;SDS011;14312;52.614;13.496;2023-04-30T15:58:15;2.03;;;1.25;;
26696;SDS011;14312;52.614;13.496;2023-04-30T16:01:01;1.00;;;0.80;;
26696;SDS011;14312;52.614;13.496;2023-04-30T16:03:47;1.20;;;1.00;;
26696;SDS011;14312;52.614;13.496;2023-04-30T16:06:33;1.65;;;1.17;;
26696;SDS011;14312;52.614;13.496;2023-04-30T16:09:19;2.38;;;1.13;;
26696;SDS011;14312;52.614;13.496;2023-04-30T16:12:06;1.17;;;1.00;;
26696;SDS011;14312;52.614;13.496;2023-04-30T16:14:52;2.03;;;1.25;;
26696;SDS011;14312;52.614;13.496;2023-04-30T16:17:38;1.27;;;1.15;;
26696;SDS011;14312;52.614;13.496;2023-04-30T16:20:24;1.33;;;1.10;;
26696;SDS011;14312;52.614;13.496;2023-04-30T16:23:11;3.35;;;1.23;;
26696;SDS011;14312;52.614;13.496;2023-04-30T16:25:57;1.45;;;1.10;;
26696;SDS011;14312;52.614;13.496;2023-04-30T16:28:43;1.50;;;1.40;;
26696;SDS011;14312;52.614;13.496;2023-04-30T16:31:30;1.83;;;1.10;;
26696;SDS011;14312;52.614;13.496;2023-04-30T16:34:16;1.67;;;1.20;;
26696;SDS011;14312;52.614;13.496;2023-04-30T16:37:06;1.15;;;0.98;;
26696;SDS011;14312;52.614;13.496;2023-04-30T16:39:55;1.65;;;1.00;;
26696;SDS011;14312;52.614;13.496;2023-04-30T16:42:41;2.08;;;1.23;;
26696;SDS011;14312;52.614;13.496;2023-04-30T16:45:28;1.27;;;1.17;;
26696;SDS011;14312;52.614;13.496;2023-04-30T16:48:14;1.20;;;1.00;;
26696;SDS011;14312;52.614;13.496;2023-04-30T16:51:02;1.75;;;1.10;;